createdAt,value
2022-10-19T08:03:30.000Z,0.116211
2022-10-19T08:03:50.000Z,25.903320
2022-10-19T08:04:11.000Z,17.690430
2022-10-19T08:04:32.000Z,11.713867
2022-10-19T08:04:53.000Z,21.125000
2022-10-19T08:05:14.000Z,37.839844
2022-10-19T08:05:34.000Z,30.900391
2022-10-19T08:05:54.000Z,31.627930
2022-10-19T08:06:15.000Z,31.023438
2022-10-19T08:06:35.000Z,12.104492
2022-10-19T08:06:57.000Z,24.692383
2022-10-19T08:07:17.000Z,14.649414
2022-10-19T08:07:49.000Z,30.089844
2022-10-19T08:08:09.000Z,23.616211
2022-10-19T08:08:29.000Z,36.379883
2022-10-19T08:08:49.000Z,0.909180
2022-10-19T08:09:10.000Z,12.014648
2022-10-19T08:09:30.000Z,7.525391
2022-10-19T08:09:51.000Z,28.410156
2022-10-19T08:10:12.000Z,22.837891
2022-10-19T08:10:32.000Z,31.390625
2022-10-19T08:10:53.000Z,32.132812
2022-10-19T08:11:14.000Z,22.214844
2022-10-19T08:11:34.000Z,36.365234
2022-10-19T08:11:54.000Z,37.275391
2022-10-19T08:12:15.000Z,3.039062
2022-10-19T08:12:35.000Z,17.627930
2022-10-19T08:12:55.000Z,19.455078
2022-10-19T08:13:16.000Z,18.230469
2022-10-19T08:13:37.000Z,9.494141
2022-10-19T08:13:57.000Z,21.295898
2022-10-19T08:14:17.000Z,15.512695
2022-10-19T08:14:38.000Z,0.355469
2022-10-19T08:14:58.000Z,1.351562
2022-10-19T08:15:18.000Z,34.605469
2022-10-19T08:15:38.000Z,21.407227
2022-10-19T08:15:59.000Z,24.353516
2022-10-19T08:16:20.000Z,25.251953
2022-10-19T08:16:40.000Z,24.298828
2022-10-19T08:17:00.000Z,22.232422
2022-10-19T08:17:21.000Z,14.991211
2022-10-19T08:17:41.000Z,9.625977
2022-10-19T08:18:01.000Z,18.976562
2022-10-19T08:18:21.000Z,25.726562
2022-10-19T08:18:42.000Z,33.066406
2022-10-19T08:19:03.000Z,39.465820
2022-10-19T08:19:23.000Z,24.866211
2022-10-19T08:19:44.000Z,19.024414
2022-10-19T08:20:04.000Z,24.246094
2022-10-19T08:20:24.000Z,20.785156
2022-10-19T08:20:44.000Z,22.654297
2022-10-19T08:21:05.000Z,25.241211
2022-10-19T08:21:25.000Z,25.606445
2022-10-19T08:21:46.000Z,5.854492
2022-10-19T08:22:07.000Z,25.514648
2022-10-19T08:22:28.000Z,22.573242
2022-10-19T08:22:49.000Z,21.277344
2022-10-19T08:23:10.000Z,22.515625
2022-10-19T08:23:30.000Z,22.940430
2022-10-19T08:23:50.000Z,39.618164
2022-10-19T08:24:10.000Z,30.957031
2022-10-19T08:24:31.000Z,25.111328
2022-10-19T08:24:51.000Z,11.464844
2022-10-19T08:25:12.000Z,0.642578
2022-10-19T08:25:32.000Z,2.335938
2022-10-19T08:25:52.000Z,34.956055
2022-10-19T08:26:13.000Z,19.815430
2022-10-19T08:26:33.000Z,37.243164
2022-10-19T08:26:53.000Z,37.848633
2022-10-19T08:27:14.000Z,31.400391
2022-10-19T08:27:35.000Z,22.110352
2022-10-19T08:27:56.000Z,27.755859
2022-10-19T08:28:16.000Z,35.980469
2022-10-19T08:28:37.000Z,27.199219
2022-10-19T08:28:57.000Z,29.262695
2022-10-19T08:29:17.000Z,4.699219
2022-10-19T08:29:38.000Z,4.255859
2022-10-19T08:29:58.000Z,34.710938
2022-10-19T08:30:19.000Z,31.385742
2022-10-19T08:30:39.000Z,24.254883
2022-10-19T08:30:59.000Z,39.789062
2022-10-19T08:31:20.000Z,20.425781
2022-10-19T08:31:40.000Z,12.223633
2022-10-19T08:32:00.000Z,18.535156
2022-10-19T08:32:21.000Z,6.111328
2022-10-19T08:32:41.000Z,0.372070
2022-10-19T08:33:02.000Z,0.086914
2022-10-19T08:33:23.000Z,0.094727
2022-10-19T08:33:23.000Z,1.405273
2022-10-19T08:42:23.000Z,0.099609
2022-10-19T08:42:44.000Z,0.102539
2022-10-19T08:43:04.000Z,0.080078
2022-10-19T08:43:13.000Z,1.313477
2022-10-19T08:51:46.000Z,0.087891
2022-10-19T08:52:06.000Z,0.081055
2022-10-19T08:52:27.000Z,0.102539
2022-10-19T08:52:36.000Z,1.438477
2022-10-19T09:01:09.000Z,0.106445
2022-10-19T09:01:29.000Z,0.109375
2022-10-19T09:01:50.000Z,0.117188
2022-10-19T09:01:59.000Z,1.442383
2022-10-19T09:09:38.000Z,0.121094
2022-10-19T09:09:59.000Z,0.110352
2022-10-19T09:10:19.000Z,0.115234
2022-10-19T09:10:28.000Z,1.264648
2022-10-19T09:17:44.000Z,0.107422
2022-10-19T09:18:05.000Z,0.109375
2022-10-19T09:18:25.000Z,0.114258
2022-10-19T09:18:34.000Z,1.302734
2022-10-19T09:26:10.000Z,0.100586
2022-10-19T09:26:31.000Z,0.107422
2022-10-19T09:26:51.000Z,0.140625
2022-10-19T09:27:00.000Z,1.265625
2022-10-19T09:33:59.000Z,0.107422
2022-10-19T09:34:20.000Z,0.098633
2022-10-19T09:34:40.000Z,0.101562
2022-10-19T09:34:49.000Z,1.337891
2022-10-19T09:41:49.000Z,0.115234
2022-10-19T09:42:09.000Z,0.102539
2022-10-19T09:42:29.000Z,0.118164
2022-10-19T09:42:39.000Z,1.196289
2022-10-19T09:49:11.000Z,0.125977
2022-10-19T09:49:31.000Z,0.110352
2022-10-19T09:49:51.000Z,0.089844
2022-10-19T09:50:00.000Z,1.273438
2022-10-19T09:57:08.000Z,0.089844
2022-10-19T09:57:28.000Z,0.105469
2022-10-19T09:57:49.000Z,0.099609
2022-10-19T09:57:58.000Z,1.301758
2022-10-19T10:05:30.000Z,0.113281
2022-10-19T10:05:50.000Z,0.098633
2022-10-19T10:06:11.000Z,0.099609
2022-10-19T10:06:20.000Z,1.333008
2022-10-19T10:13:56.000Z,0.108398
2022-10-19T10:14:17.000Z,0.099609
2022-10-19T10:14:37.000Z,0.076172
2022-10-19T10:14:46.000Z,1.236328
2022-10-19T10:20:50.000Z,0.136719
2022-10-19T10:21:10.000Z,0.137695
2022-10-19T10:21:30.000Z,0.115234
2022-10-19T10:21:40.000Z,1.196289
2022-10-19T10:26:59.000Z,0.102539
2022-10-19T10:27:19.000Z,0.090820
2022-10-19T10:27:39.000Z,0.095703
2022-10-19T10:27:49.000Z,1.268555
2022-10-19T10:33:47.000Z,0.109375
2022-10-19T10:34:07.000Z,0.104492
2022-10-19T10:34:28.000Z,0.098633
2022-10-19T10:34:37.000Z,1.232422
2022-10-19T10:40:39.000Z,0.084961
2022-10-19T10:41:00.000Z,0.103516
2022-10-19T10:41:20.000Z,0.108398
2022-10-19T10:41:28.000Z,1.277344
2022-10-19T10:47:29.000Z,0.107422
2022-10-19T10:47:49.000Z,0.121094
2022-10-19T10:48:09.000Z,0.105469
2022-10-19T10:48:19.000Z,1.175781
2022-10-19T10:53:57.000Z,0.115234
2022-10-19T10:54:18.000Z,0.123047
2022-10-19T10:54:38.000Z,0.114258
2022-10-19T10:54:47.000Z,1.223633
2022-10-19T11:00:32.000Z,0.099609
2022-10-19T11:00:53.000Z,0.085938
2022-10-19T11:01:13.000Z,0.098633
2022-10-19T11:01:22.000Z,1.274414
2022-10-19T11:07:17.000Z,0.100586
2022-10-19T11:07:37.000Z,0.097656
2022-10-19T11:07:57.000Z,0.116211
2022-10-19T11:08:07.000Z,1.146484
2022-10-19T11:13:26.000Z,0.129883
2022-10-19T11:13:48.000Z,0.123047
2022-10-19T11:14:08.000Z,0.109375
2022-10-19T11:14:16.000Z,1.158203
2022-10-19T11:19:28.000Z,0.103516
2022-10-19T11:19:48.000Z,0.118164
2022-10-19T11:20:09.000Z,0.126953
2022-10-19T11:20:18.000Z,1.126953
2022-10-19T11:24:36.000Z,0.126953
2022-10-19T11:24:57.000Z,0.111328
2022-10-19T11:25:17.000Z,0.127930
2022-10-19T11:25:26.000Z,1.145508
2022-10-19T11:30:08.000Z,0.130859
2022-10-19T11:30:28.000Z,0.124023
2022-10-19T11:30:49.000Z,0.133789
2022-10-19T11:30:58.000Z,1.191406
2022-10-19T11:35:45.000Z,0.116211
2022-10-19T11:36:05.000Z,0.114258
2022-10-19T11:36:25.000Z,0.121094
2022-10-19T11:36:34.000Z,1.133789
2022-10-19T11:41:33.000Z,0.109375
2022-10-19T11:41:53.000Z,0.114258
2022-10-19T11:42:14.000Z,0.111328
2022-10-19T11:42:23.000Z,1.144531
2022-10-19T11:47:08.000Z,0.104492
2022-10-19T11:47:29.000Z,0.118164
2022-10-19T11:47:49.000Z,0.115234
2022-10-19T11:47:58.000Z,1.219727
2022-10-19T11:53:39.000Z,0.101562
2022-10-19T11:53:59.000Z,0.102539
2022-10-19T11:54:20.000Z,0.110352
2022-10-19T11:54:28.000Z,1.119141
2022-10-19T11:59:25.000Z,0.119141
2022-10-19T11:59:45.000Z,0.117188
2022-10-19T12:00:06.000Z,0.114258
2022-10-19T12:00:15.000Z,1.116211
2022-10-19T12:05:25.000Z,0.124023
2022-10-19T12:05:45.000Z,0.117188
2022-10-19T12:06:05.000Z,0.095703
2022-10-19T12:06:14.000Z,1.154297
2022-10-19T12:11:18.000Z,0.108398
2022-10-19T12:11:38.000Z,0.111328
2022-10-19T12:11:59.000Z,0.134766
2022-10-19T12:12:08.000Z,1.143555
2022-10-19T12:16:02.000Z,0.141602
2022-10-19T12:16:22.000Z,0.152344
2022-10-19T12:16:42.000Z,0.151367
2022-10-19T12:16:52.000Z,1.080078
2022-10-19T12:20:35.000Z,0.122070
2022-10-19T12:20:55.000Z,0.146484
2022-10-19T12:21:16.000Z,0.143555
2022-10-19T12:21:25.000Z,1.189453
2022-10-19T12:25:59.000Z,0.094727
2022-10-19T12:26:19.000Z,0.125000
2022-10-19T12:26:40.000Z,0.117188
2022-10-19T12:26:48.000Z,1.189453
2022-10-19T12:32:22.000Z,0.115234
2022-10-19T12:32:42.000Z,0.099609
2022-10-19T12:33:02.000Z,0.113281
2022-10-19T12:33:12.000Z,1.267578
2022-10-19T12:39:06.000Z,0.125000
2022-10-19T12:39:26.000Z,4.164062
2022-10-19T12:39:47.000Z,22.088867
2022-10-19T12:40:08.000Z,29.332031
2022-10-19T12:40:28.000Z,32.179688
2022-10-19T12:40:48.000Z,13.561523
2022-10-19T12:41:09.000Z,13.267578
2022-10-19T12:41:29.000Z,15.496094
2022-10-19T12:41:49.000Z,17.625000
2022-10-19T12:42:09.000Z,16.054688
2022-10-19T12:42:30.000Z,0.843750
2022-10-19T12:42:50.000Z,28.549805
2022-10-19T12:43:10.000Z,18.032227
2022-10-19T12:43:31.000Z,14.543945
2022-10-19T12:43:51.000Z,17.447266
2022-10-19T12:44:12.000Z,14.576172
2022-10-19T12:44:32.000Z,27.828125
2022-10-19T12:44:52.000Z,38.300781
2022-10-19T12:45:13.000Z,37.800781
2022-10-19T12:45:33.000Z,38.986328
2022-10-19T12:45:53.000Z,35.478516
2022-10-19T12:46:15.000Z,23.017578
2022-10-19T12:46:35.000Z,7.366211
2022-10-19T12:46:56.000Z,5.724609
2022-10-19T12:47:16.000Z,33.005859
2022-10-19T12:47:36.000Z,20.833984
2022-10-19T12:47:57.000Z,5.775391
2022-10-19T12:48:17.000Z,15.177734
2022-10-19T12:48:38.000Z,35.713867
2022-10-19T12:48:58.000Z,21.669922
2022-10-19T12:49:19.000Z,22.977539
2022-10-19T12:49:40.000Z,23.015625
2022-10-19T12:50:00.000Z,18.903320
2022-10-19T12:50:20.000Z,19.733398
2022-10-19T12:50:41.000Z,15.519531
2022-10-19T12:51:01.000Z,29.909180
2022-10-19T12:51:21.000Z,24.304688
2022-10-19T12:51:42.000Z,23.131836
2022-10-19T12:52:02.000Z,21.257812
2022-10-19T12:52:24.000Z,30.170898
2022-10-19T12:52:44.000Z,31.744141
2022-10-19T12:53:04.000Z,23.021484
2022-10-19T12:53:25.000Z,24.753906
2022-10-19T12:53:45.000Z,3.537109
2022-10-19T12:54:05.000Z,33.082031
2022-10-19T12:54:26.000Z,26.277344
2022-10-19T12:54:47.000Z,28.590820
2022-10-19T12:55:07.000Z,12.308594
2022-10-19T12:55:28.000Z,18.814453
2022-10-19T12:55:48.000Z,23.881836
2022-10-19T12:56:08.000Z,13.737305
2022-10-19T12:56:28.000Z,12.749023
2022-10-19T12:56:49.000Z,2.708008
2022-10-19T12:57:10.000Z,23.224609
2022-10-19T12:57:30.000Z,23.683594
2022-10-19T12:57:50.000Z,22.007812
2022-10-19T12:58:11.000Z,27.027344
2022-10-19T12:58:31.000Z,18.731445
2022-10-19T12:58:51.000Z,0.997070
2022-10-19T12:59:12.000Z,22.459961
2022-10-19T12:59:32.000Z,14.361328
2022-10-19T12:59:53.000Z,18.461914
2022-10-19T13:00:13.000Z,18.141602
2022-10-19T13:00:34.000Z,14.794922
2022-10-19T13:00:54.000Z,33.858398
2022-10-19T13:01:15.000Z,39.297852
2022-10-19T13:01:35.000Z,36.006836
2022-10-19T13:01:56.000Z,18.301758
2022-10-19T13:02:17.000Z,19.146484
2022-10-19T13:02:38.000Z,18.882812
2022-10-19T13:02:58.000Z,18.696289
2022-10-19T13:03:18.000Z,17.669922
2022-10-19T13:03:39.000Z,1.402344
2022-10-19T13:03:59.000Z,0.706055
2022-10-19T13:04:19.000Z,0.683594
2022-10-19T13:04:20.000Z,2.353516
2022-10-19T13:06:33.000Z,24.341797
2022-10-19T13:06:53.000Z,23.300781
2022-10-19T13:07:14.000Z,15.291992
2022-10-19T13:07:34.000Z,19.734375
2022-10-19T13:07:54.000Z,14.756836
2022-10-19T13:08:15.000Z,18.065430
2022-10-19T13:08:35.000Z,19.775391
2022-10-19T13:08:55.000Z,20.880859
2022-10-19T13:09:16.000Z,21.855469
2022-10-19T13:09:36.000Z,12.583008
2022-10-19T13:09:57.000Z,17.229492
2022-10-19T13:10:17.000Z,20.345703
2022-10-19T13:10:37.000Z,22.812500
2022-10-19T13:10:57.000Z,0.900391
2022-10-19T13:11:18.000Z,2.816406
2022-10-19T13:11:38.000Z,28.246094
2022-10-19T13:11:58.000Z,26.579102
2022-10-19T13:12:19.000Z,27.687500
2022-10-19T13:12:39.000Z,17.195312
2022-10-19T13:12:59.000Z,25.772461
2022-10-19T13:13:20.000Z,29.466797
2022-10-19T13:13:40.000Z,10.809570
2022-10-19T13:14:01.000Z,0.652344
2022-10-19T13:14:22.000Z,11.875000
2022-10-19T13:14:43.000Z,22.090820
2022-10-19T13:15:03.000Z,13.264648
2022-10-19T13:15:24.000Z,2.446289
2022-10-19T13:15:44.000Z,10.363281
2022-10-19T13:16:04.000Z,23.175781
2022-10-19T13:16:25.000Z,19.398438
2022-10-19T13:16:45.000Z,8.119141
2022-10-19T13:17:05.000Z,10.271484
2022-10-19T13:17:26.000Z,6.539062
2022-10-19T13:17:46.000Z,9.325195
2022-10-19T13:18:06.000Z,13.025391
2022-10-19T13:18:27.000Z,16.768555
2022-10-19T13:18:47.000Z,15.796875
2022-10-19T13:19:07.000Z,7.727539
2022-10-19T13:19:27.000Z,0.119141
2022-10-19T13:19:48.000Z,0.116211
2022-10-19T13:20:08.000Z,0.117188
